Portland, North Dakota
Current Conditions -  °F | °C
As of 6:53 AM on Saturday 20 Dec 2014 (Local Time) from KGFK Reporting Station
Haze Haze  
Wind Chill: 19°   Ceiling: 600
Heat Index: 28°   Visibility: 6mi
Dew Point: 26°   Wind: 9mph
Humidity: 92%   Direction: 210°SSW
Pressure: 30"   Gusts: NA
Location:  47.5°N, 97.37°W
Report Text: KGFK 201253Z 21008KT 6SM BR OVC006 M02/M03 A3000 RMK AO2 SLP171 T10221033 $
Loading
Personal Weather Stations






























Interactive Weather Map New forecast layout! Learn more

10-Day Weather Forecast

Advertisements
Track Severe Weather on mobile